createdAt,value
2018-06-18T00:00:08.577Z,81.00
2018-06-18T00:02:36.593Z,80.80
2018-06-18T00:05:04.655Z,81.10
2018-06-18T00:07:32.686Z,81.30
2018-06-18T00:10:00.705Z,81.90
2018-06-18T00:12:28.739Z,81.90
2018-06-18T00:14:56.753Z,82.10
2018-06-18T00:17:24.820Z,82.20
2018-06-18T00:19:52.846Z,82.10
2018-06-18T00:22:20.897Z,82.20
2018-06-18T00:24:49.267Z,82.50
2018-06-18T00:27:17.309Z,82.20
2018-06-18T00:29:45.350Z,82.10
2018-06-18T00:32:13.392Z,82.30
2018-06-18T00:34:41.696Z,82.30
2018-06-18T00:37:09.889Z,82.50
2018-06-18T00:39:38.097Z,82.60
2018-06-18T00:42:06.388Z,82.60
2018-06-18T00:44:34.397Z,82.70
2018-06-18T00:47:02.436Z,82.70
2018-06-18T00:49:30.474Z,82.50
2018-06-18T00:51:58.492Z,82.50
2018-06-18T00:54:26.544Z,82.40
2018-06-18T00:56:54.582Z,82.20
2018-06-18T00:59:22.626Z,82.30
2018-06-18T01:01:50.648Z,82.20
2018-06-18T01:04:18.680Z,82.10
2018-06-18T01:06:46.683Z,82.90
2018-06-18T01:09:14.729Z,82.00
2018-06-18T01:11:42.768Z,81.90
2018-06-18T01:14:10.808Z,81.90
2018-06-18T01:16:38.836Z,82.20
2018-06-18T01:19:06.884Z,82.00
2018-06-18T01:21:34.902Z,82.30
2018-06-18T01:24:09.942Z,82.40
2018-06-18T01:26:37.966Z,82.50
2018-06-18T01:29:05.996Z,82.30
2018-06-18T01:31:34.304Z,82.30
2018-06-18T01:34:03.336Z,82.50
2018-06-18T01:36:31.381Z,82.30
2018-06-18T01:38:59.400Z,82.40
2018-06-18T01:41:27.440Z,82.40
2018-06-18T01:43:55.463Z,82.50
2018-06-18T01:46:23.501Z,82.40
2018-06-18T01:48:51.516Z,82.80
2018-06-18T01:51:19.560Z,82.50
2018-06-18T01:53:47.580Z,82.60
2018-06-18T01:56:15.626Z,82.50
2018-06-18T01:58:43.648Z,82.80
2018-06-18T02:01:11.682Z,82.60
2018-06-18T02:03:39.704Z,82.80
2018-06-18T02:06:07.736Z,83.10
2018-06-18T02:08:35.761Z,83.20
2018-06-18T02:11:03.793Z,82.80
2018-06-18T02:13:31.829Z,83.00
2018-06-18T02:15:59.862Z,83.20
2018-06-18T02:18:27.896Z,83.20
2018-06-18T02:20:55.931Z,83.20
2018-06-18T02:23:23.970Z,83.30
2018-06-18T02:25:51.997Z,83.20
2018-06-18T02:28:25.492Z,83.30
2018-06-18T02:30:58.891Z,83.40
2018-06-18T02:35:39.180Z,83.60
2018-06-18T02:38:12.589Z,83.50
2018-06-18T02:40:44.708Z,84.50
2018-06-18T02:43:13.309Z,83.90
2018-06-18T02:45:41.421Z,83.80
2018-06-18T02:48:09.732Z,83.70
2018-06-18T02:50:37.777Z,83.90
2018-06-18T02:53:05.859Z,83.80
2018-06-18T02:55:33.900Z,83.90
2018-06-18T02:58:02.104Z,83.90
2018-06-18T03:00:30.153Z,83.90
2018-06-18T03:02:58.197Z,84.00
2018-06-18T03:05:26.257Z,84.00
2018-06-18T03:07:54.319Z,83.90
2018-06-18T03:10:22.313Z,84.00
2018-06-18T03:12:50.329Z,83.80
2018-06-18T03:15:18.391Z,83.80
2018-06-18T03:17:46.416Z,84.00
2018-06-18T03:20:19.917Z,84.00
2018-06-18T03:22:53.392Z,84.30
2018-06-18T03:25:26.909Z,84.20
2018-06-18T03:28:00.409Z,84.20
2018-06-18T03:30:28.462Z,84.20
2018-06-18T03:32:56.528Z,83.90
2018-06-18T03:35:24.603Z,84.10
2018-06-18T03:37:53.629Z,84.10
2018-06-18T03:40:21.684Z,83.80
2018-06-18T03:42:49.734Z,83.70
2018-06-18T03:45:20.667Z,83.80
2018-06-18T03:47:48.806Z,84.10
2018-06-18T03:50:16.856Z,84.10
2018-06-18T03:52:44.901Z,84.20
2018-06-18T03:55:15.971Z,84.10
2018-06-18T03:57:44.021Z,84.00
2018-06-18T04:00:12.100Z,84.00
2018-06-18T04:02:50.572Z,83.50
2018-06-18T04:07:30.048Z,83.50
2018-06-18T04:10:03.462Z,83.80
2018-06-18T04:12:31.504Z,83.40
2018-06-18T04:14:59.544Z,83.50
2018-06-18T04:17:27.674Z,83.00
2018-06-18T04:19:55.701Z,83.10
2018-06-18T04:22:23.724Z,83.40
2018-06-18T04:24:51.756Z,83.10
2018-06-18T04:27:19.784Z,83.00
2018-06-18T04:29:47.908Z,83.00
2018-06-18T04:32:15.952Z,82.90
2018-06-18T04:34:49.024Z,82.80
2018-06-18T04:37:17.030Z,82.70
2018-06-18T04:39:45.092Z,82.60
2018-06-18T04:42:18.447Z,82.10
2018-06-18T04:44:51.738Z,81.60
2018-06-18T04:47:25.232Z,81.50
2018-06-18T04:49:58.772Z,81.20
2018-06-18T04:52:26.792Z,81.20
2018-06-18T04:54:54.877Z,81.20
2018-06-18T04:57:22.889Z,81.20
2018-06-18T05:00:03.992Z,80.70
2018-06-18T05:02:32.072Z,80.90
2018-06-18T05:05:00.113Z,80.30
2018-06-18T05:07:28.156Z,80.50
2018-06-18T05:10:00.733Z,80.20
2018-06-18T05:12:28.806Z,79.80
2018-06-18T05:14:57.440Z,79.80
2018-06-18T05:17:25.481Z,79.30
2018-06-18T05:19:53.511Z,79.40
2018-06-18T05:22:21.768Z,79.40
2018-06-18T05:24:51.784Z,79.50
2018-06-18T05:27:22.099Z,79.10
2018-06-18T05:29:50.181Z,79.00
2018-06-18T05:32:18.224Z,78.50
2018-06-18T05:34:46.632Z,78.60
2018-06-18T05:37:17.793Z,79.30
2018-06-18T05:39:46.865Z,78.20
2018-06-18T05:42:14.909Z,77.30
2018-06-18T05:44:42.948Z,77.60
2018-06-18T05:47:10.980Z,76.80
2018-06-18T05:49:39.054Z,77.10
2018-06-18T05:52:07.108Z,76.50
2018-06-18T05:54:35.148Z,76.30
2018-06-18T05:57:03.280Z,75.60
2018-06-18T05:59:31.305Z,75.30
2018-06-18T06:01:59.361Z,75.80
2018-06-18T06:04:27.405Z,74.30
2018-06-18T06:06:55.456Z,74.90
2018-06-18T06:09:23.495Z,75.00
2018-06-18T06:11:51.553Z,75.30
2018-06-18T06:14:19.597Z,75.70
2018-06-18T06:16:47.622Z,75.50
2018-06-18T06:19:15.660Z,75.50
2018-06-18T06:21:43.689Z,75.00
2018-06-18T06:24:11.716Z,75.10
2018-06-18T06:26:39.748Z,75.00
2018-06-18T06:29:08.612Z,75.10
2018-06-18T06:31:36.637Z,74.70
2018-06-18T06:34:04.748Z,75.20
2018-06-18T06:36:32.696Z,74.80
2018-06-18T06:39:00.752Z,75.00
2018-06-18T06:41:29.713Z,74.30
2018-06-18T06:43:57.728Z,74.30
2018-06-18T06:46:25.781Z,73.90
2018-06-18T06:48:53.831Z,72.90
2018-06-18T06:51:21.834Z,72.00
2018-06-18T06:53:49.890Z,71.80
2018-06-18T06:56:17.945Z,71.60
2018-06-18T06:58:45.965Z,71.40
2018-06-18T07:01:14.125Z,71.20
2018-06-18T07:03:42.150Z,70.90
2018-06-18T07:06:10.196Z,70.50
2018-06-18T07:08:38.236Z,70.90
2018-06-18T07:11:06.681Z,70.10
2018-06-18T07:13:34.866Z,71.20
2018-06-18T07:16:02.817Z,70.80
2018-06-18T07:18:30.874Z,70.60
2018-06-18T07:20:58.921Z,70.80
2018-06-18T07:23:26.948Z,71.10
2018-06-18T07:25:55.000Z,71.70
2018-06-18T07:28:23.037Z,72.10
2018-06-18T07:30:51.175Z,72.10
2018-06-18T07:33:19.198Z,72.60
2018-06-18T07:35:47.403Z,72.40
2018-06-18T07:38:15.501Z,72.60
2018-06-18T07:40:43.561Z,73.70
2018-06-18T07:43:11.612Z,73.60
2018-06-18T07:45:39.661Z,73.10
2018-06-18T07:48:07.688Z,73.00
2018-06-18T07:50:35.732Z,73.50
2018-06-18T07:53:03.771Z,73.70
2018-06-18T07:55:31.852Z,73.50
2018-06-18T07:57:59.901Z,74.20
2018-06-18T08:00:27.944Z,74.40
2018-06-18T08:02:55.968Z,74.70
2018-06-18T08:05:24.085Z,74.80
2018-06-18T08:07:52.117Z,74.80
2018-06-18T08:10:20.153Z,75.00
2018-06-18T08:12:48.178Z,73.70
2018-06-18T08:15:17.277Z,73.00
2018-06-18T08:17:46.380Z,73.40
2018-06-18T08:20:15.762Z,73.30
2018-06-18T08:22:44.185Z,72.50
2018-06-18T08:25:12.204Z,73.00
2018-06-18T08:27:40.269Z,73.10
2018-06-18T08:30:08.303Z,72.70
2018-06-18T08:32:36.374Z,72.90
2018-06-18T08:35:04.464Z,73.10
2018-06-18T08:37:32.511Z,74.40
2018-06-18T08:40:00.545Z,74.80
2018-06-18T08:42:28.670Z,75.20
2018-06-18T08:44:56.716Z,75.00
2018-06-18T08:47:24.760Z,75.70
2018-06-18T08:52:01.209Z,76.20
2018-06-18T08:56:41.755Z,77.10
2018-06-18T08:59:15.172Z,77.30
2018-06-18T09:01:44.746Z,78.70
2018-06-18T09:04:17.295Z,79.80
2018-06-18T09:06:46.068Z,80.20
2018-06-18T09:09:14.164Z,81.30
2018-06-18T09:11:42.224Z,82.00
2018-06-18T09:14:10.262Z,83.60
2018-06-18T09:16:38.289Z,83.60
2018-06-18T09:19:06.465Z,84.10
2018-06-18T09:21:34.493Z,83.20
2018-06-18T09:24:02.525Z,84.00
2018-06-18T09:26:30.558Z,85.00
2018-06-18T09:28:58.594Z,85.20
2018-06-18T09:31:26.636Z,86.40
2018-06-18T09:33:54.671Z,86.70
2018-06-18T09:36:22.816Z,87.40
2018-06-18T09:38:50.867Z,88.20
2018-06-18T09:41:18.901Z,88.20
2018-06-18T09:43:46.945Z,87.40
2018-06-18T09:46:16.029Z,87.50
2018-06-18T09:48:49.542Z,88.20
2018-06-18T09:51:22.921Z,88.30
2018-06-18T09:53:56.323Z,87.70
2018-06-18T09:56:29.824Z,87.00
2018-06-18T09:59:03.228Z,86.70
2018-06-18T10:01:32.495Z,87.00
2018-06-18T10:04:01.739Z,87.30
2018-06-18T10:06:31.274Z,87.50
2018-06-18T10:09:02.614Z,87.60
2018-06-18T10:11:30.641Z,87.00
2018-06-18T10:13:58.684Z,86.20
2018-06-18T10:16:27.738Z,86.90
2018-06-18T10:18:55.782Z,86.50
2018-06-18T10:21:23.845Z,86.20
2018-06-18T10:23:51.888Z,85.80
2018-06-18T10:26:19.904Z,84.40
2018-06-18T10:28:47.966Z,84.20
2018-06-18T10:31:16.013Z,83.10
2018-06-18T10:33:49.417Z,82.70
2018-06-18T10:36:22.866Z,81.90
2018-06-18T10:38:56.261Z,82.20
2018-06-18T10:41:29.782Z,81.70
2018-06-18T10:43:57.803Z,81.50
2018-06-18T10:46:25.829Z,82.00
2018-06-18T10:48:53.893Z,82.30
2018-06-18T10:51:21.929Z,80.70
2018-06-18T10:53:49.977Z,80.20
2018-06-18T10:56:18.012Z,80.30
2018-06-18T10:58:46.153Z,81.30
2018-06-18T11:01:21.052Z,81.80
2018-06-18T11:03:50.073Z,81.50
2018-06-18T11:06:37.634Z,81.90
2018-06-18T11:09:07.801Z,78.80
2018-06-18T11:11:35.917Z,77.70
2018-06-18T11:14:03.989Z,76.40
2018-06-18T11:16:32.183Z,74.00
2018-06-18T11:19:05.563Z,72.10
2018-06-18T11:21:39.096Z,72.90
2018-06-18T11:24:12.613Z,72.90
2018-06-18T11:26:46.104Z,74.00
2018-06-18T11:29:14.131Z,73.10
2018-06-18T11:31:42.165Z,72.40
2018-06-18T11:34:10.261Z,72.00
2018-06-18T11:36:38.293Z,70.70
2018-06-18T11:39:07.403Z,68.50
2018-06-18T11:41:35.496Z,67.80
2018-06-18T11:44:03.680Z,69.00
2018-06-18T11:46:31.721Z,68.70
2018-06-18T11:48:59.780Z,69.00
2018-06-18T11:51:27.898Z,68.50
2018-06-18T11:53:55.953Z,69.10
2018-06-18T11:56:23.993Z,68.10
2018-06-18T11:58:57.421Z,67.90
2018-06-18T12:01:30.870Z,68.70
2018-06-18T12:04:04.409Z,68.60
2018-06-18T12:06:37.737Z,69.40
2018-06-18T12:09:12.970Z,69.10
2018-06-18T12:11:41.614Z,69.40
2018-06-18T12:14:09.662Z,69.40
2018-06-18T12:16:38.218Z,68.90
2018-06-18T12:19:06.465Z,69.10
2018-06-18T12:21:34.869Z,66.50
2018-06-18T12:24:02.944Z,65.50
2018-06-18T12:26:31.484Z,64.60
2018-06-18T12:28:59.556Z,65.20
2018-06-18T12:31:27.663Z,64.70
2018-06-18T12:33:55.733Z,66.00
2018-06-18T12:36:23.764Z,65.70
2018-06-18T12:38:52.016Z,66.20
2018-06-18T12:41:20.135Z,66.20
2018-06-18T12:43:51.781Z,66.80
2018-06-18T12:46:25.306Z,67.10
2018-06-18T12:48:58.579Z,67.30
2018-06-18T12:51:31.956Z,68.10
2018-06-18T12:54:06.043Z,68.40
2018-06-18T12:56:39.581Z,68.70
2018-06-18T12:59:07.682Z,68.30
2018-06-18T13:01:37.729Z,67.00
2018-06-18T13:04:07.349Z,66.20
2018-06-18T13:06:35.388Z,64.90
2018-06-18T13:09:04.538Z,64.30
2018-06-18T13:11:32.586Z,63.90
2018-06-18T13:14:00.744Z,64.10
2018-06-18T13:16:28.774Z,63.90
2018-06-18T13:18:56.812Z,64.40
2018-06-18T13:21:24.845Z,64.80
2018-06-18T13:23:52.912Z,65.40
2018-06-18T13:26:20.938Z,65.10
2018-06-18T13:28:48.977Z,65.00
2018-06-18T13:31:17.072Z,65.40
2018-06-18T13:33:45.100Z,65.00
2018-06-18T13:36:13.125Z,64.60
2018-06-18T13:38:46.696Z,64.20
2018-06-18T13:41:20.085Z,64.90
2018-06-18T13:43:53.353Z,63.50
2018-06-18T13:46:26.780Z,64.00
2018-06-18T13:48:55.864Z,63.80
2018-06-18T13:51:25.080Z,64.10
2018-06-18T13:53:53.386Z,64.30
2018-06-18T13:56:21.437Z,64.20
2018-06-18T13:58:49.492Z,63.90
2018-06-18T14:01:17.520Z,63.60
2018-06-18T14:03:47.636Z,63.50
2018-06-18T14:06:15.674Z,64.30
2018-06-18T14:08:43.825Z,64.50
2018-06-18T14:11:11.856Z,63.90
2018-06-18T14:13:39.958Z,64.00
2018-06-18T14:16:07.993Z,64.50
2018-06-18T14:18:36.061Z,64.00
2018-06-18T14:21:04.106Z,64.00
2018-06-18T14:23:32.425Z,64.10
2018-06-18T14:26:00.459Z,63.60
2018-06-18T14:28:28.617Z,63.30
2018-06-18T14:31:02.133Z,63.70
2018-06-18T14:33:35.652Z,64.10
2018-06-18T14:36:09.142Z,64.60
2018-06-18T14:38:42.665Z,65.30
2018-06-18T14:41:10.814Z,64.80
2018-06-18T14:43:38.869Z,64.70
2018-06-18T14:46:06.977Z,64.60
2018-06-18T14:48:35.161Z,64.90
2018-06-18T14:51:03.052Z,64.60
2018-06-18T14:53:31.188Z,64.60
2018-06-18T14:56:32.844Z,64.20
2018-06-18T14:59:22.798Z,65.00
2018-06-18T15:01:50.843Z,64.30
2018-06-18T15:04:18.966Z,64.50
2018-06-18T15:06:46.994Z,65.10
2018-06-18T15:09:15.064Z,65.60
2018-06-18T15:11:43.572Z,65.10
2018-06-18T15:14:11.632Z,65.30
2018-06-18T15:16:39.664Z,65.70
2018-06-18T15:19:07.684Z,65.90
2018-06-18T15:21:38.632Z,67.00
2018-06-18T15:24:09.859Z,67.90
2018-06-18T15:26:37.973Z,69.10
2018-06-18T15:29:05.996Z,69.90
2018-06-18T15:31:34.076Z,71.20
2018-06-18T15:34:02.265Z,72.60
2018-06-18T15:36:30.296Z,73.20
2018-06-18T15:38:58.361Z,74.60
2018-06-18T15:41:26.389Z,75.70
2018-06-18T15:43:54.550Z,76.10
2018-06-18T15:46:22.589Z,76.20
2018-06-18T15:48:50.641Z,77.60
2018-06-18T15:51:18.673Z,79.00
2018-06-18T15:53:46.740Z,79.00
2018-06-18T15:56:14.887Z,78.70
2018-06-18T15:58:42.917Z,78.50
2018-06-18T16:01:10.974Z,77.50
2018-06-18T16:03:39.342Z,76.80
2018-06-18T16:06:07.397Z,75.40
2018-06-18T16:08:35.424Z,75.40
2018-06-18T16:11:03.553Z,75.90
2018-06-18T16:13:31.584Z,75.50
2018-06-18T16:15:59.628Z,76.10
2018-06-18T16:18:27.657Z,75.80
2018-06-18T16:20:55.697Z,75.10
2018-06-18T16:23:23.718Z,74.50
2018-06-18T16:25:51.761Z,74.80
2018-06-18T16:28:19.822Z,74.60
2018-06-18T16:30:47.851Z,75.10
2018-06-18T16:33:15.945Z,75.60
2018-06-18T16:35:44.001Z,76.10
2018-06-18T16:38:12.057Z,76.20
2018-06-18T16:40:40.086Z,76.40
2018-06-18T16:43:08.260Z,76.50
2018-06-18T16:45:36.277Z,76.40
2018-06-18T16:48:04.411Z,75.50
2018-06-18T16:50:32.551Z,75.60
2018-06-18T16:53:00.592Z,75.80
2018-06-18T16:55:28.608Z,76.20
2018-06-18T16:57:56.660Z,76.70
2018-06-18T17:00:24.733Z,76.40
2018-06-18T17:02:52.767Z,76.30
2018-06-18T17:05:20.818Z,75.30
2018-06-18T17:07:48.877Z,75.00
2018-06-18T17:10:16.900Z,74.40
2018-06-18T17:12:44.933Z,74.30
2018-06-18T17:15:12.980Z,73.90
2018-06-18T17:17:41.018Z,74.00
2018-06-18T17:20:09.184Z,73.60
2018-06-18T17:22:37.245Z,73.80
2018-06-18T17:25:05.285Z,73.10
2018-06-18T17:27:33.317Z,73.00
2018-06-18T17:30:01.372Z,73.30
2018-06-18T17:32:29.405Z,73.40
2018-06-18T17:34:57.454Z,73.10
2018-06-18T17:37:25.588Z,73.00
2018-06-18T17:39:53.745Z,73.10
2018-06-18T17:42:21.792Z,73.10
2018-06-18T17:44:49.965Z,72.70
2018-06-18T17:47:17.988Z,72.60
2018-06-18T17:49:46.153Z,72.20
2018-06-18T17:52:14.131Z,73.10
2018-06-18T17:54:42.234Z,73.90
2018-06-18T17:57:10.343Z,74.20
2018-06-18T17:59:38.527Z,74.40
2018-06-18T18:02:06.688Z,74.30
2018-06-18T18:04:34.737Z,74.20
2018-06-18T18:07:02.957Z,74.40
2018-06-18T18:09:31.077Z,74.60
2018-06-18T18:11:59.189Z,74.40
2018-06-18T18:14:27.213Z,74.10
2018-06-18T18:16:55.251Z,73.90
2018-06-18T18:19:23.301Z,73.70
2018-06-18T18:21:51.353Z,73.60
2018-06-18T18:24:19.440Z,73.90
2018-06-18T18:26:47.606Z,73.80
2018-06-18T18:29:15.672Z,74.00
2018-06-18T18:31:43.893Z,74.20
2018-06-18T18:34:11.933Z,74.40
2018-06-18T18:36:40.010Z,74.40
2018-06-18T18:39:08.886Z,74.50
2018-06-18T18:41:37.125Z,75.00
2018-06-18T18:44:05.172Z,74.70
2018-06-18T18:46:33.240Z,74.50
2018-06-18T18:49:01.313Z,75.10
2018-06-18T18:51:29.346Z,74.90
2018-06-18T18:53:57.397Z,74.60
2018-06-18T18:56:36.740Z,74.70
2018-06-18T18:59:17.645Z,74.50
2018-06-18T19:01:45.736Z,74.80
2018-06-18T19:04:17.778Z,75.00
2018-06-18T19:06:45.872Z,75.00
2018-06-18T19:09:13.944Z,74.90
2018-06-18T19:11:42.154Z,74.90
2018-06-18T19:14:10.145Z,75.10
2018-06-18T19:16:38.196Z,74.50
2018-06-18T19:19:06.368Z,74.60
2018-06-18T19:21:34.460Z,74.60
2018-06-18T19:24:02.517Z,74.90
2018-06-18T19:26:30.585Z,75.60
2018-06-18T19:28:58.688Z,75.60
2018-06-18T19:31:26.847Z,75.80
2018-06-18T19:34:28.297Z,75.90
2018-06-18T19:36:57.295Z,76.20
2018-06-18T19:39:27.113Z,76.50
2018-06-18T19:41:55.161Z,76.80
2018-06-18T19:44:23.190Z,76.80
2018-06-18T19:47:10.593Z,76.80
2018-06-18T19:49:38.620Z,77.10
2018-06-18T19:52:06.657Z,77.40
2018-06-18T19:54:38.810Z,77.50
2018-06-18T19:57:06.911Z,77.80
2018-06-18T19:59:34.964Z,78.10
2018-06-18T20:02:03.066Z,78.60
2018-06-18T20:04:31.159Z,78.70
2018-06-18T20:06:59.308Z,78.80
2018-06-18T20:09:27.389Z,79.00
2018-06-18T20:11:55.460Z,79.10
2018-06-18T20:14:23.500Z,79.30
2018-06-18T20:16:51.597Z,79.40
2018-06-18T20:19:19.638Z,79.50
2018-06-18T20:21:48.164Z,79.60
2018-06-18T20:24:16.217Z,79.60
2018-06-18T20:26:44.246Z,79.70
2018-06-18T20:29:12.296Z,80.00
2018-06-18T20:31:40.350Z,80.10
2018-06-18T20:34:08.399Z,80.20
2018-06-18T20:36:36.449Z,80.40
2018-06-18T20:39:07.881Z,80.50
2018-06-18T20:41:36.525Z,80.50
2018-06-18T20:44:15.649Z,80.90
2018-06-18T20:46:43.778Z,80.90
2018-06-18T20:49:13.069Z,81.00
2018-06-18T20:51:41.673Z,81.20
2018-06-18T20:54:10.458Z,81.60
2018-06-18T20:56:38.566Z,81.70
2018-06-18T20:59:08.032Z,81.80
2018-06-18T21:01:36.097Z,81.80
2018-06-18T21:04:04.166Z,81.60
2018-06-18T21:06:32.221Z,81.60
2018-06-18T21:09:00.273Z,81.90
2018-06-18T21:11:28.446Z,81.80
2018-06-18T21:13:56.601Z,81.60
2018-06-18T21:16:24.692Z,81.70
2018-06-18T21:18:52.719Z,81.90
2018-06-18T21:21:20.777Z,81.60
2018-06-18T21:23:48.817Z,81.80
2018-06-18T21:26:16.877Z,81.80
2018-06-18T21:28:44.920Z,82.20
2018-06-18T21:31:12.940Z,82.10
2018-06-18T21:33:40.992Z,82.40
2018-06-18T21:36:09.049Z,82.40
2018-06-18T21:38:37.088Z,82.50
2018-06-18T21:41:05.245Z,82.70
2018-06-18T21:43:33.297Z,83.00
2018-06-18T21:46:01.445Z,83.00
2018-06-18T21:48:29.590Z,83.20
2018-06-18T21:50:57.637Z,83.40
2018-06-18T21:53:25.696Z,83.60
2018-06-18T21:55:53.749Z,83.70
2018-06-18T21:58:21.852Z,83.80
2018-06-18T22:00:51.560Z,83.90
2018-06-18T22:03:19.847Z,84.00
2018-06-18T22:05:47.972Z,84.20
2018-06-18T22:08:17.790Z,84.30
2018-06-18T22:10:46.096Z,84.50
2018-06-18T22:13:14.122Z,84.60
2018-06-18T22:15:42.223Z,84.70
2018-06-18T22:18:10.281Z,84.90
2018-06-18T22:20:38.320Z,84.90
2018-06-18T22:23:06.358Z,85.20
2018-06-18T22:25:34.512Z,85.30
2018-06-18T22:28:03.808Z,85.60
2018-06-18T22:30:31.882Z,85.70
2018-06-18T22:32:59.937Z,85.90
2018-06-18T22:35:28.000Z,86.20
2018-06-18T22:37:56.057Z,86.30
2018-06-18T22:40:24.192Z,86.40
2018-06-18T22:42:52.352Z,86.40
2018-06-18T22:45:20.396Z,86.50
2018-06-18T22:47:48.549Z,86.70
2018-06-18T22:50:16.601Z,86.80
2018-06-18T22:52:44.661Z,87.10
2018-06-18T22:55:12.736Z,87.30
2018-06-18T22:57:40.786Z,87.50
2018-06-18T23:00:08.853Z,87.50
2018-06-18T23:02:37.001Z,87.50
2018-06-18T23:05:05.054Z,87.40
2018-06-18T23:07:33.122Z,87.30
2018-06-18T23:10:01.197Z,87.50
2018-06-18T23:12:32.393Z,87.30
2018-06-18T23:15:00.461Z,87.20
2018-06-18T23:17:28.577Z,87.20
2018-06-18T23:19:56.720Z,87.30
2018-06-18T23:22:24.881Z,87.50
2018-06-18T23:24:52.912Z,87.50
2018-06-18T23:27:21.057Z,87.50
2018-06-18T23:29:49.092Z,87.60
2018-06-18T23:32:17.180Z,87.50
2018-06-18T23:34:45.326Z,87.60
2018-06-18T23:37:13.440Z,87.60
2018-06-18T23:39:41.520Z,87.60
2018-06-18T23:42:09.616Z,87.60
2018-06-18T23:44:37.678Z,87.60
2018-06-18T23:47:05.708Z,87.70
2018-06-18T23:49:33.773Z,87.80
2018-06-18T23:52:01.817Z,87.80
2018-06-18T23:54:29.866Z,87.90
2018-06-18T23:56:57.956Z,87.90
2018-06-18T23:59:26.027Z,87.90
